Oscar Elton Sette — WTEE — position and weather

sailwx.info

Track history (hours):
 
Tides and Currents Weather Stations Pressure Air Temp Water Temp Dewpoint Dewpoint Depression Visibility Wind Speed Wind Dir Waves Ship Positions

Oceanographic research ship Oscar Elton Sette (USA)

Detailed information on ship capabilities available from University of Delaware's Ocean Information Center.

Last reported at 2017-May-28 10:53 UTC. Time now 2017-May-28 12:24 UTC.
Position N 26°42' W 174°42'.

Type: Other ship. MMSI: 303999000.

Wind from 050 at 11 knots

Barometer 1019.8 mb
Air temperature 21.3 ° C
Water temperature 24.4 ° C

Date/timePositionNaut miles runAvg speedWind from/ knotsBaromVisibWave heightAir tempDewpointWater temp
2017-May-28 10:53N 26°42' W 174°42'8 8.2 050 / 111019.8 21.3 24.4
2017-May-28 09:54N 26°48' W 174°48'8 8.2 030 / 141020.2 20.5 24.1
2017-May-28 08:55N 26°54' W 174°54'1212.5 040 / 131020.2 20.4 23.6
2017-May-28 07:56N 27°00' W 175°06'1313.4 050 / 141019.9 20.3 23.4
2017-May-28 06:57N 27°12' W 175°12'8 8.0 060 / 151019.9 20.2 22.8
2017-May-28 05:57N 27°18' W 175°18'8 8.2 040 / 161019.7 20.2 22.2
2017-May-28 04:58N 27°24' W 175°24'1212.4 040 / 151019.9 20.0 22.3
2017-May-28 03:59N 27°30' W 175°36'1313.3 040 / 131020.2 19.9 22.4
2017-May-28 03:00N 27°42' W 175°42'5 4.4 040 / 121020.7 19.8 22.8
2017-May-28 01:48N 27°42' W 175°48'0 0.0 030 / 91021.8 20.2 22.7
2017-May-28 00:49N 27°42' W 175°48'0 0.0 020 / 111022.2 19.8 22.6
2017-May-27 22:50N 27°42' W 175°48'0 0.0 040 / 121023.0 19.6 22.5
2017-May-27 21:51N 27°42' W 175°48'0 0.0 050 / 121023.0 19.6 22.5
2017-May-27 20:52N 27°42' W 175°48'0 0.0 050 / 91023.0 19.7 22.4
2017-May-27 19:53N 27°42' W 175°48'0 0.0 060 / 111023.0 19.7 22.4
2017-May-27 18:54N 27°42' W 175°48'0 0.0 060 / 131023.2 19.5
2017-May-27 17:54N 27°42' W 175°48'5 5.4 060 / 161022.9 19.5
2017-May-27 16:55N 27°42' W 175°54'5 5.4 050 / 181022.6 19.4
2017-May-27 15:56N 27°42' W 176°00'5 5.4 030 / 201022.0 19.5
2017-May-27 14:57N 27°42' W 176°06'8 8.1 050 / 211022.4 19.2
2017-May-27 13:58N 27°48' W 176°12'1110.8 050 / 191022.6 19.3
2017-May-27 12:59N 27°48' W 176°24'1212.4 060 / 181023.3 19.3
2017-May-27 12:00N 27°54' W 176°36'11 8.7 070 / 181024.0 19.5
2017-May-27 10:47N 27°54' W 176°48'8 8.0 070 / 171024.7 19.7
2017-May-27 09:47N 28°00' W 176°54'1110.8 080 / 151025.3 19.9
2017-May-27 08:48N 28°00' W 177°06'1212.4 090 / 171024.9 20.0
2017-May-27 07:49N 28°06' W 177°18'5 5.4 080 / 171024.5 20.5
2017-May-27 06:50N 28°06' W 177°24'1212.4 070 / 181024.1 20.4
2017-May-27 05:51N 28°12' W 177°36'5 5.4 070 / 181023.4 20.7
2017-May-27 04:52N 28°12' W 177°42'1110.6 070 / 181023.2 20.5
2017-May-27 03:52N 28°12' W 177°54'1110.8 080 / 191023.2 20.7
2017-May-27 02:53N 28°12' W 178°06'8 8.1 080 / 201023.3 20.7
2017-May-27 01:54N 28°18' W 178°12'8 8.1 080 / 221023.3 20.9
2017-May-27 00:55N 28°24' W 178°18'0 0.0 080 / 201024.4 20.9 23.6
2017-May-26 22:57N 28°24' W 178°18'0 0.0 080 / 191025.4 21.2 23.6
2017-May-26 21:57N 28°24' W 178°18'0 0.0 080 / 181025.5 20.7 23.5
2017-May-26 20:58N 28°24' W 178°18'0 0.0 080 / 181025.7 21.0 23.4
2017-May-26 19:59N 28°24' W 178°18'0 0.0 080 / 201026.0 21.2
2017-May-26 19:00N 28°24' W 178°18'0 0.0 070 / 201025.6 20.4
2017-May-26 17:47N 28°24' W 178°18'5 5.4 080 / 191025.1 20.7
2017-May-26 16:48N 28°24' W 178°24'0 0.0 090 / 201024.7 20.8
2017-May-26 15:49N 28°24' W 178°24'0 0.0 080 / 211024.6 20.7
2017-May-26 14:49N 28°24' W 178°24'0 0.0 090 / 211024.5 20.6
2017-May-26 13:50N 28°24' W 178°24'0 0.0 080 / 211024.7 20.5
2017-May-26 12:51N 28°24' W 178°24'0 0.0 080 / 201025.4 20.9
2017-May-26 11:52N 28°24' W 178°24'0 0.0 090 / 231025.7 20.7
2017-May-26 10:53N 28°24' W 178°24'0 0.0 090 / 221026.0 20.8
2017-May-26 09:54N 28°24' W 178°24'0 0.0 080 / 241026.0 20.8
2017-May-26 08:54N 28°24' W 178°24'0 0.0 070 / 251026.2 20.6
2017-May-26 07:55N 28°24' W 178°24'0 0.0 080 / 221025.9 20.8
2017-May-26 06:56N 28°24' W 178°24'5 5.4 070 / 231025.6 21.1
2017-May-26 05:57N 28°24' W 178°30'5 5.4 080 / 241025.0 21.1 24.3
2017-May-26 04:58N 28°24' W 178°24'5 5.4 080 / 201025.0 21.5 23.9
2017-May-26 03:59N 28°24' W 178°18'0 0.0 080 / 221024.8 20.8 23.2
2017-May-26 03:00N 28°24' W 178°18'0 0.0 080 / 231025.0 21.1 23.3
2017-May-26 02:00N 28°24' W 178°18'0 0.0 080 / 251025.5 21.3 23.3
2017-May-26 00:48N 28°24' W 178°18'0 0.0 070 / 221025.8 21.3 23.1
2017-May-25 22:50N 28°24' W 178°18'0 0.0 080 / 271026.3 20.5 23.2
2017-May-25 21:51N 28°24' W 178°18'0 0.0 070 / 251026.3 20.8 23.1
2017-May-25 20:51N 28°24' W 178°18'0 0.0 080 / 241026.3 20.8 23.2
2017-May-25 19:52N 28°24' W 178°18'0 0.0 070 / 251026.0 20.8 23.2
2017-May-25 18:53N 28°24' W 178°18'0 0.0 070 / 261025.9 20.6 23.2
2017-May-25 17:54N 28°24' W 178°18'6 6.1 070 / 261025.6 20.6 28.6
2017-May-25 16:55N 28°18' W 178°18'0 0.0 070 / 231025.4 20.8 27.3
2017-May-25 15:55N 28°18' W 178°18'0 0.0 060 / 271024.4 20.0 23.3
2017-May-25 14:55N 28°18' W 178°18'5 5.4 060 / 221025.3 20.7 23.3
2017-May-25 13:56N 28°18' W 178°12'0 0.0 060 / 191025.5 20.8 23.4
2017-May-25 12:57N 28°18' W 178°12'5 5.4 070 / 221025.8 21.0 23.7
2017-May-25 11:58N 28°18' W 178°06'6 6.1 060 / 261026.1 20.8 23.8
2017-May-25 10:59N 28°12' W 178°06'5 4.4 070 / 251026.3 20.9 23.8
2017-May-25 09:47N 28°12' W 178°00'5 5.4 070 / 241026.5 21.4 23.8
2017-May-25 08:48N 28°12' W 177°54'5 5.4 060 / 261026.3 20.5 23.8
2017-May-25 07:49N 28°12' W 177°48'5 5.3 060 / 241025.9 20.7 23.8
2017-May-25 06:49N 28°12' W 177°42'5 5.4 060 / 291025.3 21.2 23.8
2017-May-25 05:50N 28°12' W 177°36'8 8.1 070 / 251024.8 21.6 23.8
2017-May-25 04:51N 28°06' W 177°30'1110.8 090 / 211024.5 22.0 23.8
2017-May-25 03:52N 28°06' W 177°18'6 6.1 080 / 221024.7 21.3 23.5
2017-May-25 02:53N 28°12' W 177°18'0 0.0 080 / 241024.4 21.2 23.4
2017-May-25 01:54N 28°12' W 177°18'0 0.0 080 / 251024.5 21.1 23.4
2017-May-25 00:54N 28°12' W 177°18'0 0.0 080 / 201025.2 21.3
2017-May-24 22:56N 28°12' W 177°18'0 0.0 070 / 221026.1 21.1
2017-May-24 21:57N 28°12' W 177°18'5 5.6 070 / 221026.3 21.2
2017-May-24 21:00N 28°12' W 177°24'5158.6 080 / 201026.5 21.117.825.0
2017-May-24 20:58N 28°12' W 177°18'5 5.5 070 / 201026.3 21.0
2017-May-24 20:00N 28°12' W 177°24'5317.3 070 / 171026.4 21.217.825.0
2017-May-24 19:59N 28°12' W 177°18'5 5.4 080 / 191026.1 21.2
2017-May-24 19:00N 28°12' W 177°24'0 0.0 070 / 191026.3 21.017.725.0
2017-May-24 18:00N 28°12' W 177°24'0 0.0 090 / 191025.7 20.717.825.0
2017-May-24 16:00N 28°12' W 177°24'0 0.0 090 / 171024.9 20.718.225.0
2017-May-24 15:00N 28°12' W 177°24'5158.6 070 / 191024.9 20.718.125.0
2017-May-24 14:58N 28°12' W 177°18'5 5.5 090 / 181024.5 20.7
2017-May-24 14:00N 28°12' W 177°24'5317.3 090 / 191025.2 20.617.925.0
2017-May-24 13:59N 28°12' W 177°18'5 5.4 090 / 191024.8 20.7
2017-May-24 13:00N 28°12' W 177°24'0 0.0 080 / 191025.4 20.818.025.0
2017-May-24 12:00N 28°12' W 177°24'524.4 080 / 221025.4 20.618.025.0
2017-May-24 11:47N 28°12' W 177°18'5 6.8 080 / 201025.4 20.7
2017-May-24 11:00N 28°12' W 177°24'526.4 080 / 221026.0 20.618.025.0
2017-May-24 10:48N 28°12' W 177°18'5 6.6 080 / 201025.8 20.8
2017-May-24 10:00N 28°12' W 177°24'526.4 080 / 201026.4 20.718.225.0
2017-May-24 09:48N 28°12' W 177°18'5 6.6 080 / 211026.1 20.8
2017-May-24 09:00N 28°12' W 177°24'528.8 080 / 221026.2 20.817.925.0
2017-May-24 08:49N 28°12' W 177°18'5 6.5 080 / 191025.9 20.8
2017-May-24 08:00N 28°12' W 177°24'531.7 090 / 201025.9 20.917.825.0
2017-May-24 07:50N 28°12' W 177°18'5 6.3 090 / 201025.6 20.9
2017-May-24 07:00N 28°12' W 177°24'535.3 080 / 211025.2 20.817.625.0
2017-May-24 06:51N 28°12' W 177°18'5 6.2 090 / 191025.0 20.9
2017-May-24 06:00N 28°12' W 177°24'539.7 080 / 211024.9 21.017.025.0
2017-May-24 05:52N 28°12' W 177°18'5 6.1 080 / 211024.5 21.0
2017-May-24 05:00N 28°12' W 177°24'545.3 090 / 191024.4 21.117.325.0
2017-May-24 04:53N 28°12' W 177°18'5 6.0 090 / 201024.1 21.1
2017-May-24 04:00N 28°12' W 177°24'545.3 090 / 201024.3 21.316.725.0
2017-May-24 03:53N 28°12' W 177°18'5 6.0 080 / 191023.9 21.3
2017-May-24 03:00N 28°12' W 177°24'552.9 080 / 211024.3 21.217.925.0
2017-May-24 02:54N 28°12' W 177°18'5 5.9 090 / 211024.0 21.1
2017-May-24 02:00N 28°12' W 177°24'563.5 080 / 181025.1 21.317.225.0
2017-May-24 01:55N 28°12' W 177°18'5 5.8 080 / 221024.7 21.2
2017-May-24 01:00N 28°12' W 177°24'579.3 090 / 201026.2 21.217.525.0
2017-May-24 00:56N 28°12' W 177°18'5 5.7 080 / 211026.0 21.1
2017-May-24 00:00N 28°12' W 177°24'0 0.0 080 / 201025.9 21.017.825.0
2017-May-23 23:00N 28°12' W 177°24'5105.8 080 / 201026.0 20.916.925.0
2017-May-23 22:57N 28°12' W 177°18'5 5.6 080 / 211025.7 20.9
2017-May-23 22:00N 28°12' W 177°24'5158.6 070 / 221026.1 20.917.425.0
2017-May-23 21:58N 28°12' W 177°18'5 5.5 070 / 211026.0 20.9
2017-May-23 21:00N 28°12' W 177°24'5317.3 070 / 191026.4 21.017.025.0
2017-May-23 20:59N 28°12' W 177°18'5 5.4 070 / 211026.0 21.0
2017-May-23 20:00N 28°12' W 177°24'522.7 080 / 201026.1 20.616.725.0
2017-May-23 19:46N 28°12' W 177°18'5 6.9 070 / 211025.9 20.6
2017-May-23 19:00N 28°12' W 177°24'524.4 080 / 221025.7 20.816.525.0
2017-May-23 18:47N 28°12' W 177°18'6 7.7 080 / 231025.3 20.9
2017-May-23 18:00N 28°06' W 177°18'0 0.0 080 / 201025.4 21.216.025.0
2017-May-23 17:48N 28°06' W 177°18'810.0 080 / 201025.2 21.1
2017-May-23 17:00N 28°12' W 177°24'843.6 080 / 191025.1 21.316.125.0
2017-May-23 16:49N 28°06' W 177°18'0 0.0 080 / 181024.9 21.7
2017-May-23 16:00N 28°06' W 177°18'528.9 080 / 221024.7 20.617.025.0
2017-May-23 15:49N 28°06' W 177°12'0 0.0 080 / 221024.4 20.6
2017-May-23 15:00N 28°06' W 177°12'531.8 080 / 211024.5 20.517.825.0
2017-May-23 14:50N 28°06' W 177°06'0 0.0 080 / 201024.4 20.5
2017-May-23 14:00N 28°06' W 177°06'853.3 090 / 251024.9 20.517.925.0
2017-May-23 13:51N 28°00' W 177°00'6 7.1 090 / 261024.7 20.5
2017-May-23 13:00N 28°06' W 177°00'645.0 070 / 181025.5 20.518.225.0
2017-May-23 12:52N 28°00' W 177°00'5 6.1 080 / 181025.3 20.4
2017-May-23 12:00N 28°00' W 176°54'0 0.0 070 / 201026.2 20.418.325.0
2017-May-23 11:53N 28°00' W 176°54'0 0.0 070 / 211025.9 20.3
2017-May-23 11:00N 28°00' W 176°54'553.0 080 / 231026.6 20.417.825.0
2017-May-23 10:54N 28°00' W 176°48'8 8.9 080 / 221026.4 20.4
2017-May-23 10:00N 27°54' W 176°42'553.0 070 / 241026.8 20.617.725.0
2017-May-23 09:54N 27°54' W 176°36'5 5.9 080 / 231026.6 20.6
2017-May-23 09:00N 27°54' W 176°30'896.1 070 / 241026.5 20.717.825.0
2017-May-23 08:55N 27°48' W 176°24'5 5.8 070 / 271026.3 20.6
2017-May-23 08:00N 27°48' W 176°18'0 0.0 070 / 251026.2 20.817.725.0
2017-May-23 07:56N 27°48' W 176°18'1111.4 070 / 221026.0 20.8
2017-May-23 07:00N 27°48' W 176°06'6120.0 070 / 231025.6 20.917.225.0
2017-May-23 06:57N 27°42' W 176°06'1111.2 070 / 241025.4 20.8
2017-May-23 06:00N 27°42' W 175°54'0 0.0 070 / 231025.4 21.717.425.0
2017-May-23 05:58N 27°42' W 175°54'8 8.3 080 / 231025.2 21.9
2017-May-23 05:00N 27°48' W 175°48'6360.0 070 / 231025.2 20.616.925.0
2017-May-23 04:59N 27°42' W 175°48'6 6.1 070 / 221024.5 20.8
2017-May-23 04:00N 27°48' W 175°48'6360.0 080 / 221024.6 20.916.625.0
2017-May-23 03:59N 27°42' W 175°48'6 6.1 090 / 221024.4 21.0
2017-May-23 03:00N 27°48' W 175°48'627.7 080 / 221024.8 20.916.625.0
2017-May-23 02:47N 27°42' W 175°48'6 7.7 080 / 191024.6 20.9
2017-May-23 02:00N 27°48' W 175°48'627.7 080 / 211025.0 20.816.225.0
2017-May-23 01:47N 27°42' W 175°48'6 7.7 080 / 211024.7 20.8
2017-May-23 01:00N 27°48' W 175°48'630.0 080 / 211025.5 20.916.225.0
2017-May-23 00:48N 27°42' W 175°48'6 7.5 080 / 201025.4 21.0
2017-May-23 00:00N 27°48' W 175°48'0 0.0 080 / 191026.1 20.915.725.0
2017-May-22 23:00N 27°48' W 175°48'636.0 070 / 201026.8 20.915.525.0
2017-May-22 22:50N 27°42' W 175°48'6 7.2 070 / 201026.1 20.9
2017-May-22 22:00N 27°48' W 175°48'640.0 060 / 211026.5 20.915.225.0
2017-May-22 21:51N 27°42' W 175°48'6 7.1 060 / 201026.3 21.0
2017-May-22 21:00N 27°48' W 175°48'645.0 080 / 181026.6 21.015.125.0
2017-May-22 20:52N 27°42' W 175°48'6 6.9 080 / 171026.5 20.9
2017-May-22 20:00N 27°48' W 175°48'645.0 100 / 151027.0 19.315.625.0
2017-May-22 19:52N 27°42' W 175°48'6 6.9 100 / 161026.5 19.3
2017-May-22 19:00N 27°48' W 175°48'651.4 070 / 171026.4 20.214.525.0
2017-May-22 18:53N 27°42' W 175°48'6 6.8 070 / 161026.3 20.2
2017-May-22 18:00N 27°48' W 175°48'660.0 070 / 181025.9 20.614.025.0
2017-May-22 17:54N 27°42' W 175°48'0 0.0 080 / 191025.6 20.7
2017-May-22 17:00N 27°42' W 175°48'0 0.0 090 / 201025.4 20.614.825.0
2017-May-22 16:55N 27°42' W 175°48'5 5.8 080 / 181025.2 20.6
2017-May-22 16:00N 27°42' W 175°42'690.0 100 / 191025.2 20.015.225.0
2017-May-22 15:56N 27°36' W 175°42'5 5.7 100 / 171024.9 20.0
2017-May-22 15:00N 27°36' W 175°36'6120.0 090 / 221024.8 20.414.725.0
2017-May-22 14:57N 27°30' W 175°36'5 5.6 100 / 221024.7 20.2
2017-May-22 14:00N 27°30' W 175°30'6120.0 070 / 211024.6 20.813.225.0
2017-May-22 13:57N 27°24' W 175°30'8 8.4 070 / 221024.3 20.7
2017-May-22 13:00N 27°18' W 175°24'5160.0 060 / 231024.5 20.615.025.0
2017-May-22 12:58N 27°18' W 175°18'8 8.3 060 / 221024.3 20.8
2017-May-22 12:00N 27°12' W 175°12'0 0.0 070 / 241025.0 20.715.825.0
2017-May-22 11:59N 27°12' W 175°12'8 8.2 070 / 201024.7 20.8
2017-May-22 11:00N 27°06' W 175°06'1313.1 070 / 231025.0 20.915.825.0
2017-May-22 10:00N 26°54' W 175°00'524.7 070 / 211025.4 21.815.525.0
2017-May-22 09:47N 26°54' W 174°54'810.3 070 / 211025.1 21.7
2017-May-22 09:00N 26°48' W 174°48'0 0.0 070 / 211025.3 21.714.625.0
2017-May-22 08:48N 26°48' W 174°48'810.1 060 / 211025.0 21.7
2017-May-22 08:00N 26°42' W 174°42'843.9 060 / 231024.5 21.715.025.0
2017-May-22 07:49N 26°36' W 174°36'0 0.0 070 / 241024.2 21.7
2017-May-22 07:00N 26°36' W 174°36'843.9 070 / 211023.8 22.114.525.0
2017-May-22 06:49N 26°30' W 174°30'8 9.9 070 / 211023.5 22.0
2017-May-22 06:00N 26°24' W 174°24'0 0.0 060 / 221023.2 21.914.625.0
2017-May-22 05:50N 26°24' W 174°24'8 9.7 060 / 211022.8 21.9
2017-May-22 05:00N 26°18' W 174°18'535.9 060 / 211022.3 21.915.225.0
2017-May-22 04:51N 26°18' W 174°12'6 7.1 060 / 201022.1 22.0
2017-May-22 04:00N 26°12' W 174°12'860.5 060 / 191022.3 21.914.825.0
2017-May-22 03:52N 26°06' W 174°06'5 6.2 060 / 201021.8 21.9
2017-May-22 03:00N 26°06' W 174°00'651.4 070 / 201021.7 22.115.425.3
2017-May-22 02:53N 26°00' W 174°00'6 6.8 070 / 211021.4 22.1 25.3
2017-May-22 02:00N 26°06' W 174°00'660.0 050 / 211021.8 21.715.925.4
2017-May-22 01:54N 26°00' W 174°00'6 6.7 050 / 201021.4 21.7 25.4
2017-May-22 01:00N 26°06' W 174°00'660.0 070 / 201022.3 21.715.225.3
2017-May-22 00:54N 26°00' W 174°00'6 6.7 060 / 211022.0 21.8 25.3
2017-May-22 00:00N 26°06' W 174°00'0 0.0 070 / 191022.7 21.513.925.4
2017-May-21 23:00N 26°06' W 174°00'690.0 060 / 211023.3 22.015.725.3
2017-May-21 22:56N 26°00' W 174°00'6 6.4 070 / 221023.0 22.1 25.2
2017-May-21 22:00N 26°06' W 174°00'6120.0 060 / 221023.2 21.515.325.3
2017-May-21 21:57N 26°00' W 174°00'6 6.3 060 / 231023.0 21.6 25.3
2017-May-21 21:00N 26°06' W 174°00'6180.0 040 / 221022.7 21.414.925.2
2017-May-21 20:58N 26°00' W 174°00'6 6.2 040 / 221022.5 21.5 25.3
2017-May-21 20:00N 26°06' W 174°00'6360.0 060 / 211023.1 21.814.325.3
2017-May-21 19:59N 26°00' W 174°00'6 6.1 060 / 211022.6 21.5 25.3
2017-May-21 19:00N 26°06' W 174°00'6360.0 060 / 201022.5 21.213.825.2
2017-May-21 18:59N 26°00' W 174°00'6 6.1 060 / 201022.4 21.2 25.2
2017-May-21 18:00N 26°06' W 174°00'627.7 070 / 191022.2 20.613.225.4
2017-May-21 17:47N 26°00' W 174°00'6 7.7 080 / 171021.8 20.7 25.4
2017-May-21 17:00N 26°06' W 174°00'630.0 060 / 221021.0 20.814.025.1
2017-May-21 16:48N 26°00' W 174°00'0 0.0 070 / 201021.0 20.8
2017-May-21 16:00N 26°00' W 174°00'632.7 050 / 211020.7 21.114.225.1
2017-May-21 15:49N 25°54' W 174°00'0 0.0 060 / 201020.4 21.1
2017-May-21 15:00N 25°54' W 174°00'636.0 040 / 201020.6 21.616.025.1
2017-May-21 14:50N 25°48' W 174°00'8 9.7 040 / 191020.3 21.5
2017-May-21 14:00N 25°54' W 173°54'853.8 050 / 191020.6 21.615.625.1
2017-May-21 13:51N 25°48' W 173°48'0 0.0 050 / 181020.3 21.6
2017-May-21 13:00N 25°48' W 173°48'536.0 040 / 191020.4 21.616.025.1
2017-May-21 12:51N 25°48' W 173°42'5 6.4 040 / 181020.2 21.7
2017-May-21 12:00N 25°48' W 173°36'0 0.0 040 / 191020.5 22.017.025.1
2017-May-21 11:52N 25°48' W 173°36'1112.5 040 / 181020.2 22.0
2017-May-21 11:00N 25°48' W 173°24'0 0.0 030 / 191020.6 22.117.925.1
2017-May-21 10:53N 25°48' W 173°24'1112.2 030 / 191020.4 22.2
2017-May-21 10:00N 25°48' W 173°12'0 0.0 030 / 221021.0 22.219.125.1
2017-May-21 09:54N 25°48' W 173°12'1112.0 030 / 231020.6 22.2
2017-May-21 09:00N 25°48' W 173°00'0 0.0 030 / 211020.6 22.419.825.3
2017-May-21 08:55N 25°48' W 173°00'1111.8 040 / 231020.4 22.4 25.2
2017-May-21 08:00N 25°48' W 172°48'0 0.0 030 / 211020.0 22.320.425.1
2017-May-21 07:56N 25°48' W 172°48'1111.6 030 / 201019.9 22.5 25.2
2017-May-21 07:00N 25°48' W 172°36'0 0.0 010 / 211019.6 22.020.625.5
2017-May-21 06:56N 25°48' W 172°36'1111.6 030 / 201019.5 21.5 25.4
2017-May-21 06:00N 25°48' W 172°24'6120.0 010 / 201019.0 23.220.026.0
2017-May-21 05:57N 25°42' W 172°24'1213.0 010 / 201018.7 23.3 25.8
2017-May-21 05:00N 25°48' W 172°12'6180.0 010 / 191018.3 23.620.526.4
2017-May-21 04:58N 25°42' W 172°12'8 8.4 010 / 181018.1 23.6 26.3
2017-May-21 04:00N 25°48' W 172°06'8484.5 350 / 141018.0 24.019.126.4
2017-May-21 03:59N 25°42' W 172°00'8 8.2 350 / 151017.8 24.1 26.6
2017-May-21 03:00N 25°48' W 171°54'5 5.4 340 / 131018.0 24.118.326.5
2017-May-21 02:00N 25°48' W 171°48'840.4 350 / 81018.2 24.819.326.5
2017-May-21 01:48N 25°42' W 171°42'810.1 340 / 91018.0 24.9 26.4
2017-May-21 01:00N 25°48' W 171°48'844.0 350 / 101018.6 24.119.126.4
2017-May-21 00:49N 25°42' W 171°42'8 9.9 350 / 91018.4 24.1 26.4
2017-May-21 00:00N 25°48' W 171°48'0 0.0 340 / 111019.0 25.318.226.3
2017-May-20 23:00N 25°48' W 171°48'848.4 350 / 121019.5 24.018.526.3
2017-May-20 22:50N 25°42' W 171°42'8 9.7 360 / 121019.2 24.0 26.3
2017-May-20 22:00N 25°48' W 171°48'853.8 340 / 91019.4 24.718.726.2
2017-May-20 21:51N 25°42' W 171°42'8 9.5 340 / 91019.2 24.8 26.2
2017-May-20 21:00N 25°48' W 171°48'860.6 360 / 101019.3 24.118.726.2
2017-May-20 20:52N 25°42' W 171°42'8 9.3 360 / 91019.1 24.1 26.2
2017-May-20 20:00N 25°48' W 171°48'869.2 360 / 111019.1 23.917.726.3
2017-May-20 19:53N 25°42' W 171°42'8 9.1 360 / 121018.9 23.8 26.3
2017-May-20 19:00N 25°48' W 171°48'880.7 330 / 91018.7 23.417.726.3
2017-May-20 18:54N 25°42' W 171°42'8 9.0 340 / 91018.4 23.4 26.3
2017-May-20 18:00N 25°48' W 171°48'880.7 350 / 71017.8 23.717.726.3
2017-May-20 17:54N 25°42' W 171°42'8 9.0 320 / 91017.5 23.5 26.3
2017-May-20 17:00N 25°48' W 171°48'896.9 350 / 71016.8 22.917.326.2
2017-May-20 16:55N 25°42' W 171°42'5 5.9 340 / 51016.6 22.9 26.2
2017-May-20 16:00N 25°42' W 171°48'581.1 340 / 71016.2 22.918.126.3
2017-May-20 15:56N 25°42' W 171°42'0 0.0 330 / 81016.0 22.9 26.3
2017-May-20 15:00N 25°42' W 171°42'6120.0 360 / 61015.8 23.018.026.5
2017-May-20 14:57N 25°36' W 171°42'0 0.0 360 / 81015.6 23.1 26.5
2017-May-20 14:00N 25°36' W 171°42'5162.3 350 / 91015.8 23.218.426.7
2017-May-20 13:58N 25°36' W 171°36'0 0.0 350 / 81015.5 23.2 26.6
2017-May-20 13:00N 25°36' W 171°36'0 0.0 330 / 61016.2 23.418.326.6
2017-May-20 12:59N 25°36' W 171°36'0 0.0 300 / 51015.9 23.4 26.6
2017-May-20 12:00N 25°36' W 171°36'8484.9 330 / 51016.6 23.618.526.6
2017-May-20 11:59N 25°30' W 171°30'6 6.1 310 / 61016.3 23.5 26.7
2017-May-20 11:00N 25°36' W 171°30'6 6.0 320 / 61017.1 23.818.326.7
2017-May-20 10:00N 25°30' W 171°30'527.1 310 / 61017.0 23.818.826.8
2017-May-20 09:48N 25°30' W 171°24'5 6.8 330 / 61016.9 23.9 26.9
2017-May-20 09:00N 25°30' W 171°18'844.1 320 / 71016.9 24.319.127.0
2017-May-20 08:49N 25°24' W 171°12'5 6.6 330 / 71016.6 24.2 26.9
2017-May-20 08:00N 25°24' W 171°06'0 0.0 320 / 71016.4 24.519.326.4
2017-May-20 07:50N 25°24' W 171°06'8 9.7 310 / 71016.3 24.5 26.3
2017-May-20 07:00N 25°18' W 171°00'536.2 310 / 91016.1 24.519.326.6
2017-May-20 06:51N 25°18' W 170°54'5 6.4 320 / 91015.8 24.6 26.6
2017-May-20 06:00N 25°18' W 170°48'640.0 300 / 81015.8 24.619.226.4
2017-May-20 05:51N 25°12' W 170°48'1112.8 300 / 91015.5 24.6 26.4
2017-May-20 05:00N 25°12' W 170°36'0 0.0 290 / 91015.3 24.820.226.5
2017-May-20 04:52N 25°12' W 170°36'1214.3 290 / 91015.2 24.8 26.5
2017-May-20 04:00N 25°06' W 170°24'0 0.0 280 / 91014.9 24.620.827.0
2017-May-20 03:53N 25°06' W 170°24'5 6.2 280 / 101014.9 24.7 27.0
2017-May-20 03:00N 25°06' W 170°18'881.0 290 / 91014.9 24.521.326.7
2017-May-20 02:54N 25°00' W 170°12'5 6.0 290 / 81014.8 24.5 26.7
2017-May-20 02:00N 25°00' W 170°06'0 0.0 280 / 111014.8 24.222.226.4
2017-May-20 01:55N 25°00' W 170°06'1111.9 290 / 111014.7 24.3 26.4
2017-May-20 01:00N 25°00' W 169°54'690.0 260 / 131014.8 24.222.526.3
2017-May-20 00:56N 24°54' W 169°54'5 5.8 260 / 131014.7 24.2 26.3
2017-May-20 00:00N 24°54' W 169°48'1212.4 240 / 151015.2 24.522.226.2
2017-May-19 23:00N 24°48' W 169°36'0 0.0 220 / 121016.0 24.422.626.0
2017-May-19 22:56N 24°48' W 169°36'1111.7 210 / 121015.5 24.3 26.2
2017-May-19 22:00N 24°48' W 169°24'6120.0 210 / 151015.9 25.222.026.1
2017-May-19 21:57N 24°42' W 169°24'5 5.7 240 / 151016.0 24.3 26.1
2017-May-19 21:00N 24°42' W 169°18'5163.5 190 / 141016.4 25.022.326.0
2017-May-19 20:58N 24°42' W 169°12'5 5.6 190 / 141016.2 25.0 26.1
2017-May-19 20:00N 24°42' W 169°06'6360.0 190 / 121016.4 24.822.426.0
2017-May-19 19:59N 24°36' W 169°06'1111.1 190 / 111016.5 24.9 26.1
2017-May-19 19:00N 24°36' W 168°54'0 0.0 190 / 121016.6 24.721.825.7
2017-May-19 18:47N 24°36' W 168°54'810.4 190 / 121016.1 24.7 25.8
2017-May-19 18:00N 24°30' W 168°48'527.3 190 / 91016.2 24.821.626.1
2017-May-19 17:48N 24°30' W 168°42'1212.7 190 / 91016.0 24.8 26.1
2017-May-19 16:49N 24°24' W 168°30'1111.1 190 / 91015.4 24.5 25.5
2017-May-19 15:50N 24°24' W 168°18'8 8.3 190 / 91014.9 24.4 26.0
2017-May-19 14:51N 24°18' W 168°12'1212.7 190 / 71015.1 24.5 26.0
2017-May-19 13:52N 24°12' W 168°00'1110.9 170 / 71015.1 24.5 25.9
2017-May-19 12:52N 24°12' W 167°48'1212.7 190 / 61015.5 24.5 25.9
2017-May-19 11:53N 24°06' W 167°36'5 5.6 200 / 51016.0 24.5 25.9
2017-May-19 10:54N 24°06' W 167°30'1212.7 160 / 71016.2 24.6 26.0
2017-May-19 09:55N 24°00' W 167°18'1111.1 180 / 61016.9 24.7 26.0
2017-May-19 08:56N 24°00' W 167°06'1312.7 180 / 61017.2 24.6 25.9
2017-May-19 07:57N 23°54' W 166°54'1111.2 170 / 51017.0 24.6 25.7
2017-May-19 06:58N 23°54' W 166°42'5 5.7 180 / 41016.6 24.8 25.8
2017-May-19 06:00N 23°54' W 166°36'6180.0 200 / 51016.410.8 25.022.6-25.9
2017-May-19 05:58N 23°48' W 166°36'1111.2 210 / 31016.3 24.7 25.8
2017-May-19 04:59N 23°48' W 166°24'5 4.6 170 / 31015.8 25.3 27.1
2017-May-19 03:48N 23°48' W 166°18'0 0.0 170 / 41015.4 25.4 26.1
2017-May-19 02:48N 23°48' W 166°18'0 0.0 200 / 31015.6 25.6 26.8
2017-May-19 01:49N 23°48' W 166°18'0 0.0 170 / 41015.9 25.2 26.7
2017-May-19 00:50N 23°48' W 166°18'0 0.0 200 / 41016.4 25.4 26.0
2017-May-18 22:52N 23°48' W 166°18'0 0.0 190 / 71017.0 24.9 26.0
2017-May-18 21:53N 23°48' W 166°18'0 0.0 170 / 51017.6 25.1 25.7
2017-May-18 20:54N 23°48' W 166°18'0 0.0 160 / 71017.8 24.8 25.7
2017-May-18 19:55N 23°48' W 166°18'0 0.0 160 / 71018.1 24.6 25.6
2017-May-18 18:55N 23°48' W 166°18'0 0.0 150 / 81018.2 24.8 25.5
2017-May-18 17:56N 23°48' W 166°18'0 0.0 140 / 81017.7 24.8 25.4
2017-May-18 16:57N 23°48' W 166°18'6 6.1 170 / 81017.4 25.0 25.4
2017-May-18 15:58N 23°42' W 166°18'6 6.1 140 / 81017.0 24.6 25.3
2017-May-18 14:59N 23°36' W 166°18'6 6.1 160 / 101016.9 24.0 25.9
2017-May-18 14:00N 23°30' W 166°18'   120 / 101017.1 23.6 25.6
Track history (hours):
 
Tides and Currents Weather Stations Pressure Air Temp Water Temp Dewpoint Dewpoint Depression Visibility Wind Speed Wind Dir Waves Ship Positions

Oceanographic research ship Oscar Elton Sette (USA)

Detailed information on ship capabilities available from University of Delaware's Ocean Information Center.

Last reported at 2017-May-28 10:53 UTC. Time now 2017-May-28 12:24 UTC.
Position N 26°42' W 174°42'.

Type: Other ship. MMSI: 303999000.

Wind from 050 at 11 knots

Barometer 1019.8 mb
Air temperature 21.3 ° C
Water temperature 24.4 ° C

Date/timePositionNaut miles runAvg speedWind from/ knotsBaromVisibWave heightAir tempDewpointWater temp
2017-May-28 10:53N 26°42' W 174°42'8 8.2 050 / 111019.8 21.3 24.4
2017-May-28 09:54N 26°48' W 174°48'8 8.2 030 / 141020.2 20.5 24.1
2017-May-28 08:55N 26°54' W 174°54'1212.5 040 / 131020.2 20.4 23.6
2017-May-28 07:56N 27°00' W 175°06'1313.4 050 / 141019.9 20.3 23.4
2017-May-28 06:57N 27°12' W 175°12'8 8.0 060 / 151019.9 20.2 22.8
2017-May-28 05:57N 27°18' W 175°18'8 8.2 040 / 161019.7 20.2 22.2
2017-May-28 04:58N 27°24' W 175°24'1212.4 040 / 151019.9 20.0 22.3
2017-May-28 03:59N 27°30' W 175°36'1313.3 040 / 131020.2 19.9 22.4
2017-May-28 03:00N 27°42' W 175°42'5 4.4 040 / 121020.7 19.8 22.8
2017-May-28 01:48N 27°42' W 175°48'0 0.0 030 / 91021.8 20.2 22.7
2017-May-28 00:49N 27°42' W 175°48'0 0.0 020 / 111022.2 19.8 22.6
2017-May-27 22:50N 27°42' W 175°48'0 0.0 040 / 121023.0 19.6 22.5
2017-May-27 21:51N 27°42' W 175°48'0 0.0 050 / 121023.0 19.6 22.5
2017-May-27 20:52N 27°42' W 175°48'0 0.0 050 / 91023.0 19.7 22.4
2017-May-27 19:53N 27°42' W 175°48'0 0.0 060 / 111023.0 19.7 22.4
2017-May-27 18:54N 27°42' W 175°48'0 0.0 060 / 131023.2 19.5
2017-May-27 17:54N 27°42' W 175°48'5 5.4 060 / 161022.9 19.5
2017-May-27 16:55N 27°42' W 175°54'5 5.4 050 / 181022.6 19.4
2017-May-27 15:56N 27°42' W 176°00'5 5.4 030 / 201022.0 19.5
2017-May-27 14:57N 27°42' W 176°06'8 8.1 050 / 211022.4 19.2
2017-May-27 13:58N 27°48' W 176°12'1110.8 050 / 191022.6 19.3
2017-May-27 12:59N 27°48' W 176°24'1212.4 060 / 181023.3 19.3
2017-May-27 12:00N 27°54' W 176°36'11 8.7 070 / 181024.0 19.5
2017-May-27 10:47N 27°54' W 176°48'8 8.0 070 / 171024.7 19.7
2017-May-27 09:47N 28°00' W 176°54'1110.8 080 / 151025.3 19.9
2017-May-27 08:48N 28°00' W 177°06'1212.4 090 / 171024.9 20.0
2017-May-27 07:49N 28°06' W 177°18'5 5.4 080 / 171024.5 20.5
2017-May-27 06:50N 28°06' W 177°24'1212.4 070 / 181024.1 20.4
2017-May-27 05:51N 28°12' W 177°36'5 5.4 070 / 181023.4 20.7
2017-May-27 04:52N 28°12' W 177°42'1110.6 070 / 181023.2 20.5
2017-May-27 03:52N 28°12' W 177°54'1110.8 080 / 191023.2 20.7
2017-May-27 02:53N 28°12' W 178°06'8 8.1 080 / 201023.3 20.7
2017-May-27 01:54N 28°18' W 178°12'8 8.1 080 / 221023.3 20.9
2017-May-27 00:55N 28°24' W 178°18'0 0.0 080 / 201024.4 20.9 23.6
2017-May-26 22:57N 28°24' W 178°18'0 0.0 080 / 191025.4 21.2 23.6
2017-May-26 21:57N 28°24' W 178°18'0 0.0 080 / 181025.5 20.7 23.5
2017-May-26 20:58N 28°24' W 178°18'0 0.0 080 / 181025.7 21.0 23.4
2017-May-26 19:59N 28°24' W 178°18'0 0.0 080 / 201026.0 21.2
2017-May-26 19:00N 28°24' W 178°18'0 0.0 070 / 201025.6 20.4
2017-May-26 17:47N 28°24' W 178°18'5 5.4 080 / 191025.1 20.7
2017-May-26 16:48N 28°24' W 178°24'0 0.0 090 / 201024.7 20.8
2017-May-26 15:49N 28°24' W 178°24'0 0.0 080 / 211024.6 20.7
2017-May-26 14:49N 28°24' W 178°24'0 0.0 090 / 211024.5 20.6
2017-May-26 13:50N 28°24' W 178°24'0 0.0 080 / 211024.7 20.5
2017-May-26 12:51N 28°24' W 178°24'0 0.0 080 / 201025.4 20.9
2017-May-26 11:52N 28°24' W 178°24'0 0.0 090 / 231025.7 20.7
2017-May-26 10:53N 28°24' W 178°24'0 0.0 090 / 221026.0 20.8
2017-May-26 09:54N 28°24' W 178°24'0 0.0 080 / 241026.0 20.8
2017-May-26 08:54N 28°24' W 178°24'0 0.0 070 / 251026.2 20.6
2017-May-26 07:55N 28°24' W 178°24'0 0.0 080 / 221025.9 20.8
2017-May-26 06:56N 28°24' W 178°24'5 5.4 070 / 231025.6 21.1
2017-May-26 05:57N 28°24' W 178°30'5 5.4 080 / 241025.0 21.1 24.3
2017-May-26 04:58N 28°24' W 178°24'5 5.4 080 / 201025.0 21.5 23.9
2017-May-26 03:59N 28°24' W 178°18'0 0.0 080 / 221024.8 20.8 23.2
2017-May-26 03:00N 28°24' W 178°18'0 0.0 080 / 231025.0 21.1 23.3
2017-May-26 02:00N 28°24' W 178°18'0 0.0 080 / 251025.5 21.3 23.3
2017-May-26 00:48N 28°24' W 178°18'0 0.0 070 / 221025.8 21.3 23.1
2017-May-25 22:50N 28°24' W 178°18'0 0.0 080 / 271026.3 20.5 23.2
2017-May-25 21:51N 28°24' W 178°18'0 0.0 070 / 251026.3 20.8 23.1
2017-May-25 20:51N 28°24' W 178°18'0 0.0 080 / 241026.3 20.8 23.2
2017-May-25 19:52N 28°24' W 178°18'0 0.0 070 / 251026.0 20.8 23.2
2017-May-25 18:53N 28°24' W 178°18'0 0.0 070 / 261025.9 20.6 23.2
2017-May-25 17:54N 28°24' W 178°18'6 6.1 070 / 261025.6 20.6 28.6
2017-May-25 16:55N 28°18' W 178°18'0 0.0 070 / 231025.4 20.8 27.3
2017-May-25 15:55N 28°18' W 178°18'0 0.0 060 / 271024.4 20.0 23.3
2017-May-25 14:55N 28°18' W 178°18'5 5.4 060 / 221025.3 20.7 23.3
2017-May-25 13:56N 28°18' W 178°12'0 0.0 060 / 191025.5 20.8 23.4
2017-May-25 12:57N 28°18' W 178°12'5 5.4 070 / 221025.8 21.0 23.7
2017-May-25 11:58N 28°18' W 178°06'6 6.1 060 / 261026.1 20.8 23.8
2017-May-25 10:59N 28°12' W 178°06'5 4.4 070 / 251026.3 20.9 23.8
2017-May-25 09:47N 28°12' W 178°00'5 5.4 070 / 241026.5 21.4 23.8
2017-May-25 08:48N 28°12' W 177°54'5 5.4 060 / 261026.3 20.5 23.8
2017-May-25 07:49N 28°12' W 177°48'5 5.3 060 / 241025.9 20.7 23.8
2017-May-25 06:49N 28°12' W 177°42'5 5.4 060 / 291025.3 21.2 23.8
2017-May-25 05:50N 28°12' W 177°36'8 8.1 070 / 251024.8 21.6 23.8
2017-May-25 04:51N 28°06' W 177°30'1110.8 090 / 211024.5 22.0 23.8
2017-May-25 03:52N 28°06' W 177°18'6 6.1 080 / 221024.7 21.3 23.5
2017-May-25 02:53N 28°12' W 177°18'0 0.0 080 / 241024.4 21.2 23.4
2017-May-25 01:54N 28°12' W 177°18'0 0.0 080 / 251024.5 21.1 23.4
2017-May-25 00:54N 28°12' W 177°18'0 0.0 080 / 201025.2 21.3
2017-May-24 22:56N 28°12' W 177°18'0 0.0 070 / 221026.1 21.1
2017-May-24 21:57N 28°12' W 177°18'5 5.6 070 / 221026.3 21.2
2017-May-24 21:00N 28°12' W 177°24'5158.6 080 / 201026.5 21.117.825.0
2017-May-24 20:58N 28°12' W 177°18'5 5.5 070 / 201026.3 21.0
2017-May-24 20:00N 28°12' W 177°24'5317.3 070 / 171026.4 21.217.825.0
2017-May-24 19:59N 28°12' W 177°18'5 5.4 080 / 191026.1 21.2
2017-May-24 19:00N 28°12' W 177°24'0 0.0 070 / 191026.3 21.017.725.0
2017-May-24 18:00N 28°12' W 177°24'0 0.0 090 / 191025.7 20.717.825.0
2017-May-24 16:00N 28°12' W 177°24'0 0.0 090 / 171024.9 20.718.225.0
2017-May-24 15:00N 28°12' W 177°24'5158.6 070 / 191024.9 20.718.125.0
2017-May-24 14:58N 28°12' W 177°18'5 5.5 090 / 181024.5 20.7
2017-May-24 14:00N 28°12' W 177°24'5317.3 090 / 191025.2 20.617.925.0
2017-May-24 13:59N 28°12' W 177°18'5 5.4 090 / 191024.8 20.7
2017-May-24 13:00N 28°12' W 177°24'0 0.0 080 / 191025.4 20.818.025.0
2017-May-24 12:00N 28°12' W 177°24'524.4 080 / 221025.4 20.618.025.0
2017-May-24 11:47N 28°12' W 177°18'5 6.8 080 / 201025.4 20.7
2017-May-24 11:00N 28°12' W 177°24'526.4 080 / 221026.0 20.618.025.0
2017-May-24 10:48N 28°12' W 177°18'5 6.6 080 / 201025.8 20.8
2017-May-24 10:00N 28°12' W 177°24'526.4 080 / 201026.4 20.718.225.0
2017-May-24 09:48N 28°12' W 177°18'5 6.6 080 / 211026.1 20.8
2017-May-24 09:00N 28°12' W 177°24'528.8 080 / 221026.2 20.817.925.0
2017-May-24 08:49N 28°12' W 177°18'5 6.5 080 / 191025.9 20.8
2017-May-24 08:00N 28°12' W 177°24'531.7 090 / 201025.9 20.917.825.0
2017-May-24 07:50N 28°12' W 177°18'5 6.3 090 / 201025.6 20.9
2017-May-24 07:00N 28°12' W 177°24'535.3 080 / 211025.2 20.817.625.0
2017-May-24 06:51N 28°12' W 177°18'5 6.2 090 / 191025.0 20.9
2017-May-24 06:00N 28°12' W 177°24'539.7 080 / 211024.9 21.017.025.0
2017-May-24 05:52N 28°12' W 177°18'5 6.1 080 / 211024.5 21.0
2017-May-24 05:00N 28°12' W 177°24'545.3 090 / 191024.4 21.117.325.0
2017-May-24 04:53N 28°12' W 177°18'5 6.0 090 / 201024.1 21.1
2017-May-24 04:00N 28°12' W 177°24'545.3 090 / 201024.3 21.316.725.0
2017-May-24 03:53N 28°12' W 177°18'5 6.0 080 / 191023.9 21.3
2017-May-24 03:00N 28°12' W 177°24'552.9 080 / 211024.3 21.217.925.0
2017-May-24 02:54N 28°12' W 177°18'5 5.9 090 / 211024.0 21.1
2017-May-24 02:00N 28°12' W 177°24'563.5 080 / 181025.1 21.317.225.0
2017-May-24 01:55N 28°12' W 177°18'5 5.8 080 / 221024.7 21.2
2017-May-24 01:00N 28°12' W 177°24'579.3 090 / 201026.2 21.217.525.0
2017-May-24 00:56N 28°12' W 177°18'5 5.7 080 / 211026.0 21.1
2017-May-24 00:00N 28°12' W 177°24'0 0.0 080 / 201025.9 21.017.825.0
2017-May-23 23:00N 28°12' W 177°24'5105.8 080 / 201026.0 20.916.925.0
2017-May-23 22:57N 28°12' W 177°18'5 5.6 080 / 211025.7 20.9
2017-May-23 22:00N 28°12' W 177°24'5158.6 070 / 221026.1 20.917.425.0
2017-May-23 21:58N 28°12' W 177°18'5 5.5 070 / 211026.0 20.9
2017-May-23 21:00N 28°12' W 177°24'5317.3 070 / 191026.4 21.017.025.0
2017-May-23 20:59N 28°12' W 177°18'5 5.4 070 / 211026.0 21.0
2017-May-23 20:00N 28°12' W 177°24'522.7 080 / 201026.1 20.616.725.0
2017-May-23 19:46N 28°12' W 177°18'5 6.9 070 / 211025.9 20.6
2017-May-23 19:00N 28°12' W 177°24'524.4 080 / 221025.7 20.816.525.0
2017-May-23 18:47N 28°12' W 177°18'6 7.7 080 / 231025.3 20.9
2017-May-23 18:00N 28°06' W 177°18'0 0.0 080 / 201025.4 21.216.025.0
2017-May-23 17:48N 28°06' W 177°18'810.0 080 / 201025.2 21.1
2017-May-23 17:00N 28°12' W 177°24'843.6 080 / 191025.1 21.316.125.0
2017-May-23 16:49N 28°06' W 177°18'0 0.0 080 / 181024.9 21.7
2017-May-23 16:00N 28°06' W 177°18'528.9 080 / 221024.7 20.617.025.0
2017-May-23 15:49N 28°06' W 177°12'0 0.0 080 / 221024.4 20.6
2017-May-23 15:00N 28°06' W 177°12'531.8 080 / 211024.5 20.517.825.0
2017-May-23 14:50N 28°06' W 177°06'0 0.0 080 / 201024.4 20.5
2017-May-23 14:00N 28°06' W 177°06'853.3 090 / 251024.9 20.517.925.0
2017-May-23 13:51N 28°00' W 177°00'6 7.1 090 / 261024.7 20.5
2017-May-23 13:00N 28°06' W 177°00'645.0 070 / 181025.5 20.518.225.0
2017-May-23 12:52N 28°00' W 177°00'5 6.1 080 / 181025.3 20.4
2017-May-23 12:00N 28°00' W 176°54'0 0.0 070 / 201026.2 20.418.325.0
2017-May-23 11:53N 28°00' W 176°54'0 0.0 070 / 211025.9 20.3
2017-May-23 11:00N 28°00' W 176°54'553.0 080 / 231026.6 20.417.825.0
2017-May-23 10:54N 28°00' W 176°48'8 8.9 080 / 221026.4 20.4
2017-May-23 10:00N 27°54' W 176°42'553.0 070 / 241026.8 20.617.725.0
2017-May-23 09:54N 27°54' W 176°36'5 5.9 080 / 231026.6 20.6
2017-May-23 09:00N 27°54' W 176°30'896.1 070 / 241026.5 20.717.825.0
2017-May-23 08:55N 27°48' W 176°24'5 5.8 070 / 271026.3 20.6
2017-May-23 08:00N 27°48' W 176°18'0 0.0 070 / 251026.2 20.817.725.0
2017-May-23 07:56N 27°48' W 176°18'1111.4 070 / 221026.0 20.8
2017-May-23 07:00N 27°48' W 176°06'6120.0 070 / 231025.6 20.917.225.0
2017-May-23 06:57N 27°42' W 176°06'1111.2 070 / 241025.4 20.8
2017-May-23 06:00N 27°42' W 175°54'0 0.0 070 / 231025.4 21.717.425.0
2017-May-23 05:58N 27°42' W 175°54'8 8.3 080 / 231025.2 21.9
2017-May-23 05:00N 27°48' W 175°48'6360.0 070 / 231025.2 20.616.925.0
2017-May-23 04:59N 27°42' W 175°48'6 6.1 070 / 221024.5 20.8
2017-May-23 04:00N 27°48' W 175°48'6360.0 080 / 221024.6 20.916.625.0
2017-May-23 03:59N 27°42' W 175°48'6 6.1 090 / 221024.4 21.0
2017-May-23 03:00N 27°48' W 175°48'627.7 080 / 221024.8 20.916.625.0
2017-May-23 02:47N 27°42' W 175°48'6 7.7 080 / 191024.6 20.9
2017-May-23 02:00N 27°48' W 175°48'627.7 080 / 211025.0 20.816.225.0
2017-May-23 01:47N 27°42' W 175°48'6 7.7 080 / 211024.7 20.8
2017-May-23 01:00N 27°48' W 175°48'630.0 080 / 211025.5 20.916.225.0
2017-May-23 00:48N 27°42' W 175°48'6 7.5 080 / 201025.4 21.0
2017-May-23 00:00N 27°48' W 175°48'0 0.0 080 / 191026.1 20.915.725.0
2017-May-22 23:00N 27°48' W 175°48'636.0 070 / 201026.8 20.915.525.0
2017-May-22 22:50N 27°42' W 175°48'6 7.2 070 / 201026.1 20.9
2017-May-22 22:00N 27°48' W 175°48'640.0 060 / 211026.5 20.915.225.0
2017-May-22 21:51N 27°42' W 175°48'6 7.1 060 / 201026.3 21.0
2017-May-22 21:00N 27°48' W 175°48'645.0 080 / 181026.6 21.015.125.0
2017-May-22 20:52N 27°42' W 175°48'6 6.9 080 / 171026.5 20.9
2017-May-22 20:00N 27°48' W 175°48'645.0 100 / 151027.0 19.315.625.0
2017-May-22 19:52N 27°42' W 175°48'6 6.9 100 / 161026.5 19.3
2017-May-22 19:00N 27°48' W 175°48'651.4 070 / 171026.4 20.214.525.0
2017-May-22 18:53N 27°42' W 175°48'6 6.8 070 / 161026.3 20.2
2017-May-22 18:00N 27°48' W 175°48'660.0 070 / 181025.9 20.614.025.0
2017-May-22 17:54N 27°42' W 175°48'0 0.0 080 / 191025.6 20.7
2017-May-22 17:00N 27°42' W 175°48'0 0.0 090 / 201025.4 20.614.825.0
2017-May-22 16:55N 27°42' W 175°48'5 5.8 080 / 181025.2 20.6
2017-May-22 16:00N 27°42' W 175°42'690.0 100 / 191025.2 20.015.225.0
2017-May-22 15:56N 27°36' W 175°42'5 5.7 100 / 171024.9 20.0
2017-May-22 15:00N 27°36' W 175°36'6120.0 090 / 221024.8 20.414.725.0
2017-May-22 14:57N 27°30' W 175°36'5 5.6 100 / 221024.7 20.2
2017-May-22 14:00N 27°30' W 175°30'6120.0 070 / 211024.6 20.813.225.0
2017-May-22 13:57N 27°24' W 175°30'8 8.4 070 / 221024.3 20.7
2017-May-22 13:00N 27°18' W 175°24'5160.0 060 / 231024.5 20.615.025.0
2017-May-22 12:58N 27°18' W 175°18'8 8.3 060 / 221024.3 20.8
2017-May-22 12:00N 27°12' W 175°12'0 0.0 070 / 241025.0 20.715.825.0
2017-May-22 11:59N 27°12' W 175°12'8 8.2 070 / 201024.7 20.8
2017-May-22 11:00N 27°06' W 175°06'1313.1 070 / 231025.0 20.915.825.0
2017-May-22 10:00N 26°54' W 175°00'524.7 070 / 211025.4 21.815.525.0
2017-May-22 09:47N 26°54' W 174°54'810.3 070 / 211025.1 21.7
2017-May-22 09:00N 26°48' W 174°48'0 0.0 070 / 211025.3 21.714.625.0
2017-May-22 08:48N 26°48' W 174°48'810.1 060 / 211025.0 21.7
2017-May-22 08:00N 26°42' W 174°42'843.9 060 / 231024.5 21.715.025.0
2017-May-22 07:49N 26°36' W 174°36'0 0.0 070 / 241024.2 21.7
2017-May-22 07:00N 26°36' W 174°36'843.9 070 / 211023.8 22.114.525.0
2017-May-22 06:49N 26°30' W 174°30'8 9.9 070 / 211023.5 22.0
2017-May-22 06:00N 26°24' W 174°24'0 0.0 060 / 221023.2 21.914.625.0
2017-May-22 05:50N 26°24' W 174°24'8 9.7 060 / 211022.8 21.9
2017-May-22 05:00N 26°18' W 174°18'535.9 060 / 211022.3 21.915.225.0
2017-May-22 04:51N 26°18' W 174°12'6 7.1 060 / 201022.1 22.0
2017-May-22 04:00N 26°12' W 174°12'860.5 060 / 191022.3 21.914.825.0
2017-May-22 03:52N 26°06' W 174°06'5 6.2 060 / 201021.8 21.9
2017-May-22 03:00N 26°06' W 174°00'651.4 070 / 201021.7 22.115.425.3
2017-May-22 02:53N 26°00' W 174°00'6 6.8 070 / 211021.4 22.1 25.3
2017-May-22 02:00N 26°06' W 174°00'660.0 050 / 211021.8 21.715.925.4
2017-May-22 01:54N 26°00' W 174°00'6 6.7 050 / 201021.4 21.7 25.4
2017-May-22 01:00N 26°06' W 174°00'660.0 070 / 201022.3 21.715.225.3
2017-May-22 00:54N 26°00' W 174°00'6 6.7 060 / 211022.0 21.8 25.3
2017-May-22 00:00N 26°06' W 174°00'0 0.0 070 / 191022.7 21.513.925.4
2017-May-21 23:00N 26°06' W 174°00'690.0 060 / 211023.3 22.015.725.3
2017-May-21 22:56N 26°00' W 174°00'6 6.4 070 / 221023.0 22.1 25.2
2017-May-21 22:00N 26°06' W 174°00'6120.0 060 / 221023.2 21.515.325.3
2017-May-21 21:57N 26°00' W 174°00'6 6.3 060 / 231023.0 21.6 25.3
2017-May-21 21:00N 26°06' W 174°00'6180.0 040 / 221022.7 21.414.925.2
2017-May-21 20:58N 26°00' W 174°00'6 6.2 040 / 221022.5 21.5 25.3
2017-May-21 20:00N 26°06' W 174°00'6360.0 060 / 211023.1 21.814.325.3
2017-May-21 19:59N 26°00' W 174°00'6 6.1 060 / 211022.6 21.5 25.3
2017-May-21 19:00N 26°06' W 174°00'6360.0 060 / 201022.5 21.213.825.2
2017-May-21 18:59N 26°00' W 174°00'6 6.1 060 / 201022.4 21.2 25.2
2017-May-21 18:00N 26°06' W 174°00'627.7 070 / 191022.2 20.613.225.4
2017-May-21 17:47N 26°00' W 174°00'6 7.7 080 / 171021.8 20.7 25.4
2017-May-21 17:00N 26°06' W 174°00'630.0 060 / 221021.0 20.814.025.1
2017-May-21 16:48N 26°00' W 174°00'0 0.0 070 / 201021.0 20.8
2017-May-21 16:00N 26°00' W 174°00'632.7 050 / 211020.7 21.114.225.1
2017-May-21 15:49N 25°54' W 174°00'0 0.0 060 / 201020.4 21.1
2017-May-21 15:00N 25°54' W 174°00'636.0 040 / 201020.6 21.616.025.1
2017-May-21 14:50N 25°48' W 174°00'8 9.7 040 / 191020.3 21.5
2017-May-21 14:00N 25°54' W 173°54'853.8 050 / 191020.6 21.615.625.1
2017-May-21 13:51N 25°48' W 173°48'0 0.0 050 / 181020.3 21.6
2017-May-21 13:00N 25°48' W 173°48'536.0 040 / 191020.4 21.616.025.1
2017-May-21 12:51N 25°48' W 173°42'5 6.4 040 / 181020.2 21.7
2017-May-21 12:00N 25°48' W 173°36'0 0.0 040 / 191020.5 22.017.025.1
2017-May-21 11:52N 25°48' W 173°36'1112.5 040 / 181020.2 22.0
2017-May-21 11:00N 25°48' W 173°24'0 0.0 030 / 191020.6 22.117.925.1
2017-May-21 10:53N 25°48' W 173°24'1112.2 030 / 191020.4 22.2
2017-May-21 10:00N 25°48' W 173°12'0 0.0 030 / 221021.0 22.219.125.1
2017-May-21 09:54N 25°48' W 173°12'1112.0 030 / 231020.6 22.2
2017-May-21 09:00N 25°48' W 173°00'0 0.0 030 / 211020.6 22.419.825.3
2017-May-21 08:55N 25°48' W 173°00'1111.8 040 / 231020.4 22.4 25.2
2017-May-21 08:00N 25°48' W 172°48'0 0.0 030 / 211020.0 22.320.425.1
2017-May-21 07:56N 25°48' W 172°48'1111.6 030 / 201019.9 22.5 25.2
2017-May-21 07:00N 25°48' W 172°36'0 0.0 010 / 211019.6 22.020.625.5
2017-May-21 06:56N 25°48' W 172°36'1111.6 030 / 201019.5 21.5 25.4
2017-May-21 06:00N 25°48' W 172°24'6120.0 010 / 201019.0 23.220.026.0
2017-May-21 05:57N 25°42' W 172°24'1213.0 010 / 201018.7 23.3 25.8
2017-May-21 05:00N 25°48' W 172°12'6180.0 010 / 191018.3 23.620.526.4
2017-May-21 04:58N 25°42' W 172°12'8 8.4 010 / 181018.1 23.6 26.3
2017-May-21 04:00N 25°48' W 172°06'8484.5 350 / 141018.0 24.019.126.4
2017-May-21 03:59N 25°42' W 172°00'8 8.2 350 / 151017.8 24.1 26.6
2017-May-21 03:00N 25°48' W 171°54'5 5.4 340 / 131018.0 24.118.326.5
2017-May-21 02:00N 25°48' W 171°48'840.4 350 / 81018.2 24.819.326.5
2017-May-21 01:48N 25°42' W 171°42'810.1 340 / 91018.0 24.9 26.4
2017-May-21 01:00N 25°48' W 171°48'844.0 350 / 101018.6 24.119.126.4
2017-May-21 00:49N 25°42' W 171°42'8 9.9 350 / 91018.4 24.1 26.4
2017-May-21 00:00N 25°48' W 171°48'0 0.0 340 / 111019.0 25.318.226.3
2017-May-20 23:00N 25°48' W 171°48'848.4 350 / 121019.5 24.018.526.3
2017-May-20 22:50N 25°42' W 171°42'8 9.7 360 / 121019.2 24.0 26.3
2017-May-20 22:00N 25°48' W 171°48'853.8 340 / 91019.4 24.718.726.2
2017-May-20 21:51N 25°42' W 171°42'8 9.5 340 / 91019.2 24.8 26.2
2017-May-20 21:00N 25°48' W 171°48'860.6 360 / 101019.3 24.118.726.2
2017-May-20 20:52N 25°42' W 171°42'8 9.3 360 / 91019.1 24.1 26.2
2017-May-20 20:00N 25°48' W 171°48'869.2 360 / 111019.1 23.917.726.3
2017-May-20 19:53N 25°42' W 171°42'8 9.1 360 / 121018.9 23.8 26.3
2017-May-20 19:00N 25°48' W 171°48'880.7 330 / 91018.7 23.417.726.3
2017-May-20 18:54N 25°42' W 171°42'8 9.0 340 / 91018.4 23.4 26.3
2017-May-20 18:00N 25°48' W 171°48'880.7 350 / 71017.8 23.717.726.3
2017-May-20 17:54N 25°42' W 171°42'8 9.0 320 / 91017.5 23.5 26.3
2017-May-20 17:00N 25°48' W 171°48'896.9 350 / 71016.8 22.917.326.2
2017-May-20 16:55N 25°42' W 171°42'5 5.9 340 / 51016.6 22.9 26.2
2017-May-20 16:00N 25°42' W 171°48'581.1 340 / 71016.2 22.918.126.3
2017-May-20 15:56N 25°42' W 171°42'0 0.0 330 / 81016.0 22.9 26.3
2017-May-20 15:00N 25°42' W 171°42'6120.0 360 / 61015.8 23.018.026.5
2017-May-20 14:57N 25°36' W 171°42'0 0.0 360 / 81015.6 23.1 26.5
2017-May-20 14:00N 25°36' W 171°42'5162.3 350 / 91015.8 23.218.426.7
2017-May-20 13:58N 25°36' W 171°36'0 0.0 350 / 81015.5 23.2 26.6
2017-May-20 13:00N 25°36' W 171°36'0 0.0 330 / 61016.2 23.418.326.6
2017-May-20 12:59N 25°36' W 171°36'0 0.0 300 / 51015.9 23.4 26.6
2017-May-20 12:00N 25°36' W 171°36'8484.9 330 / 51016.6 23.618.526.6
2017-May-20 11:59N 25°30' W 171°30'6 6.1 310 / 61016.3 23.5 26.7
2017-May-20 11:00N 25°36' W 171°30'6 6.0 320 / 61017.1 23.818.326.7
2017-May-20 10:00N 25°30' W 171°30'527.1 310 / 61017.0 23.818.826.8
2017-May-20 09:48N 25°30' W 171°24'5 6.8 330 / 61016.9 23.9 26.9
2017-May-20 09:00N 25°30' W 171°18'844.1 320 / 71016.9 24.319.127.0
2017-May-20 08:49N 25°24' W 171°12'5 6.6 330 / 71016.6 24.2 26.9
2017-May-20 08:00N 25°24' W 171°06'0 0.0 320 / 71016.4 24.519.326.4
2017-May-20 07:50N 25°24' W 171°06'8 9.7 310 / 71016.3 24.5 26.3
2017-May-20 07:00N 25°18' W 171°00'536.2 310 / 91016.1 24.519.326.6
2017-May-20 06:51N 25°18' W 170°54'5 6.4 320 / 91015.8 24.6 26.6
2017-May-20 06:00N 25°18' W 170°48'640.0 300 / 81015.8 24.619.226.4
2017-May-20 05:51N 25°12' W 170°48'1112.8 300 / 91015.5 24.6 26.4
2017-May-20 05:00N 25°12' W 170°36'0 0.0 290 / 91015.3 24.820.226.5
2017-May-20 04:52N 25°12' W 170°36'1214.3 290 / 91015.2 24.8 26.5
2017-May-20 04:00N 25°06' W 170°24'0 0.0 280 / 91014.9 24.620.827.0
2017-May-20 03:53N 25°06' W 170°24'5 6.2 280 / 101014.9 24.7 27.0
2017-May-20 03:00N 25°06' W 170°18'881.0 290 / 91014.9 24.521.326.7
2017-May-20 02:54N 25°00' W 170°12'5 6.0 290 / 81014.8 24.5 26.7
2017-May-20 02:00N 25°00' W 170°06'0 0.0 280 / 111014.8 24.222.226.4
2017-May-20 01:55N 25°00' W 170°06'1111.9 290 / 111014.7 24.3 26.4
2017-May-20 01:00N 25°00' W 169°54'690.0 260 / 131014.8 24.222.526.3
2017-May-20 00:56N 24°54' W 169°54'5 5.8 260 / 131014.7 24.2 26.3
2017-May-20 00:00N 24°54' W 169°48'1212.4 240 / 151015.2 24.522.226.2
2017-May-19 23:00N 24°48' W 169°36'0 0.0 220 / 121016.0 24.422.626.0
2017-May-19 22:56N 24°48' W 169°36'1111.7 210 / 121015.5 24.3 26.2
2017-May-19 22:00N 24°48' W 169°24'6120.0 210 / 151015.9 25.222.026.1
2017-May-19 21:57N 24°42' W 169°24'5 5.7 240 / 151016.0 24.3 26.1
2017-May-19 21:00N 24°42' W 169°18'5163.5 190 / 141016.4 25.022.326.0
2017-May-19 20:58N 24°42' W 169°12'5 5.6 190 / 141016.2 25.0 26.1
2017-May-19 20:00N 24°42' W 169°06'6360.0 190 / 121016.4 24.822.426.0
2017-May-19 19:59N 24°36' W 169°06'1111.1 190 / 111016.5 24.9 26.1
2017-May-19 19:00N 24°36' W 168°54'0 0.0 190 / 121016.6 24.721.825.7
2017-May-19 18:47N 24°36' W 168°54'810.4 190 / 121016.1 24.7 25.8
2017-May-19 18:00N 24°30' W 168°48'527.3 190 / 91016.2 24.821.626.1
2017-May-19 17:48N 24°30' W 168°42'1212.7 190 / 91016.0 24.8 26.1
2017-May-19 16:49N 24°24' W 168°30'1111.1 190 / 91015.4 24.5 25.5
2017-May-19 15:50N 24°24' W 168°18'8 8.3 190 / 91014.9 24.4 26.0
2017-May-19 14:51N 24°18' W 168°12'1212.7 190 / 71015.1 24.5 26.0
2017-May-19 13:52N 24°12' W 168°00'1110.9 170 / 71015.1 24.5 25.9
2017-May-19 12:52N 24°12' W 167°48'1212.7 190 / 61015.5 24.5 25.9
2017-May-19 11:53N 24°06' W 167°36'5 5.6 200 / 51016.0 24.5 25.9
2017-May-19 10:54N 24°06' W 167°30'1212.7 160 / 71016.2 24.6 26.0
2017-May-19 09:55N 24°00' W 167°18'1111.1 180 / 61016.9 24.7 26.0
2017-May-19 08:56N 24°00' W 167°06'1312.7 180 / 61017.2 24.6 25.9
2017-May-19 07:57N 23°54' W 166°54'1111.2 170 / 51017.0 24.6 25.7
2017-May-19 06:58N 23°54' W 166°42'5 5.7 180 / 41016.6 24.8 25.8
2017-May-19 06:00N 23°54' W 166°36'6180.0 200 / 51016.410.8 25.022.6-25.9
2017-May-19 05:58N 23°48' W 166°36'1111.2 210 / 31016.3 24.7 25.8
2017-May-19 04:59N 23°48' W 166°24'5 4.6 170 / 31015.8 25.3 27.1
2017-May-19 03:48N 23°48' W 166°18'0 0.0 170 / 41015.4 25.4 26.1
2017-May-19 02:48N 23°48' W 166°18'0 0.0 200 / 31015.6 25.6 26.8
2017-May-19 01:49N 23°48' W 166°18'0 0.0 170 / 41015.9 25.2 26.7
2017-May-19 00:50N 23°48' W 166°18'0 0.0 200 / 41016.4 25.4 26.0
2017-May-18 22:52N 23°48' W 166°18'0 0.0 190 / 71017.0 24.9 26.0
2017-May-18 21:53N 23°48' W 166°18'0 0.0 170 / 51017.6 25.1 25.7
2017-May-18 20:54N 23°48' W 166°18'0 0.0 160 / 71017.8 24.8 25.7
2017-May-18 19:55N 23°48' W 166°18'0 0.0 160 / 71018.1 24.6 25.6
2017-May-18 18:55N 23°48' W 166°18'0 0.0 150 / 81018.2 24.8 25.5
2017-May-18 17:56N 23°48' W 166°18'0 0.0 140 / 81017.7 24.8 25.4
2017-May-18 16:57N 23°48' W 166°18'6 6.1 170 / 81017.4 25.0 25.4
2017-May-18 15:58N 23°42' W 166°18'6 6.1 140 / 81017.0 24.6 25.3
2017-May-18 14:59N 23°36' W 166°18'6 6.1 160 / 101016.9 24.0 25.9
2017-May-18 14:00N 23°30' W 166°18'   120 / 101017.1 23.6 25.6

Dump ship's entire track history